• Join FlightAware (Why Join?)
  • Login
  • US Flag 
08:52AM EDT


 

Airport Tracker/Info


-or-


 

Live Flight TrackerFlight Track Log ✈ N130RC ✈ 03-Oct-2013 ✈ KHIO - KHIO

Flight Track Log - Related Links

Times and Time Zones

All times are in EDT time to prevent confusion due to time zone crossing. See the N130RC flight status page for this flight to view local times or setup timezone preferences in your user account.

Time Position Orientation Groundspeed Altitude Reporting Facility
EDT Latitude Longitude Course Direction KTS MPH feet Rate Location/Type
01:57PM 45.5556 -122.9681 North 96 110 1,000  Level Seattle Center
01:57PM 45.5503 -122.9856 247° West 130 150 1,600 960 Climbing Seattle Center
01:58PM 45.5178 -122.9739 166° South 107 123 2,600 960 Climbing Seattle Center
01:59PM 45.4889 -122.9703 175° South 114 131 3,600 960 Climbing Seattle Center
02:00PM 45.4842 -122.9825 241° Southwest 119 137 4,000 420 Climbing Seattle Center
02:00PM 45.4997 -123.0150 304° West 135 155 4,100 60 Climbing Seattle Center
02:01PM 45.5047 -123.0228 313° West 134 154 4,100  Level Seattle Center
02:01PM 45.5308 -123.0519 322° Northwest 146 168 4,100 -120 Level Seattle Center
02:02PM 45.5406 -122.9502 North  Level Estimated
02:02PM 45.5364 -123.0567 329° Northwest 142 163 4,000  Level Seattle Center
02:02PM 45.5614 -123.0858 321° Northwest 146 168 4,000  Level Seattle Center
02:03PM 45.5747 -123.0997 324° Northwest 145 167 4,000  Level Seattle Center
02:03PM 45.5944 -123.1219 322° Northwest 143 165 4,000  Level Seattle Center
02:04PM 45.6053 -123.1350 320° Northwest 143 165 4,000  Level Seattle Center
02:04PM 45.6256 -123.1589 321° Northwest 140 161 4,000  Level Seattle Center
02:05PM 45.6344 -123.1697 320° Northwest 141 162 4,000  Level Seattle Center
02:05PM 45.6508 -123.1889 321° Northwest 130 150 4,000  Level Seattle Center
02:06PM 45.6625 -123.2025 321° Northwest 135 155 4,000 -420 Level Seattle Center
02:06PM 45.6881 -123.2019 North 146 168 3,600 -540 Descending Seattle Center
02:07PM 45.7000 -123.1961 19° North 137 158 3,500 -120 Descending Seattle Center
02:08PM 45.7217 -123.1853 19° North 126 145 3,500  Level Seattle Center
02:08PM 45.7203 -123.1739 100° East 132 152 3,500 60 Level Seattle Center
02:08PM 45.7083 -123.1506 126° Southeast 106 122 3,600 60 Climbing Seattle Center
02:09PM 45.7031 -123.1425 133° Southeast 112 129 3,600 -120 Level Seattle Center
02:09PM 45.6919 -123.1108 117° Southeast 121 139 3,500  Descending Seattle Center
02:10PM 45.6869 -123.0997 123° Southeast 114 131 3,600 -480 Climbing Seattle Center
02:11PM 45.6633 -123.0758 145° Southeast 117 135 3,000 -840 Descending Seattle Center
02:11PM 45.6589 -123.0719 149° Southeast 121 139 2,800 -660 Descending Seattle Center
02:11PM 45.6378 -123.0553 151° Southeast 112 129 2,400 -600 Descending Seattle Center
02:12PM 45.6325 -123.0481 136° Southeast 119 137 2,200 -420 Descending Seattle Center
02:13PM 45.6181 -123.0325 143° Southeast 106 122 2,000 -540 Descending Seattle Center
02:13PM 45.6050 -123.0178 142° Southeast 111 128 1,700 -540 Descending Seattle Center
02:14PM 45.5958 -123.0075 142° Southeast 104 120 1,500 -600 Descending Seattle Center
02:14PM 45.5814 -122.9925 144° Southeast 108 124 1,100 -840 Descending Seattle Center
02:15PM 45.5664 -122.9792 148° Southeast 106 122 700 -540 Descending Seattle Center
02:15PM 45.5625 -122.9733 134° Southeast 107 123 600 -120 Descending Seattle Center
02:16PM 45.5594 -122.9664 122° Southeast 105 121 600 420 Level Seattle Center
02:16PM 45.5389 -122.9500 151° Southeast 111 128 1,000 1,680 Climbing Seattle Center
02:16PM 45.5353 -122.9450 136° Southeast 104 120 1,200 1,200 Climbing Seattle Center
02:16PM 45.5281 -122.9392 150° Southeast 116 133 1,500 840 Climbing Seattle Center
02:17PM 45.5047 -122.9425 186° South 111 128 2,100 780 Climbing Seattle Center
02:17PM 45.4969 -122.9456 195° South 118 136 2,300 960 Climbing Seattle Center
02:18PM 45.4797 -122.9658 220° Southwest 112 129 3,100 960 Climbing Seattle Center
02:18PM 45.4864 -122.9803 303° West 116 133 3,300 780 Climbing Seattle Center
02:19PM 45.5061 -122.9956 332° Northwest 115 132 3,900 660 Climbing Seattle Center
02:19PM 45.5153 -123.0058 322° Northwest 124 143 4,000 60 Climbing Seattle Center
02:20PM 45.5361 -123.0264 325° Northwest 128 147 4,000 180 Level Seattle Center
02:20PM 45.5478 -123.0389 323° Northwest 145 167 4,200 540 Climbing Seattle Center
02:21PM 45.5650 -123.0589 321° Northwest 131 151 4,600 540 Climbing Seattle Center
02:21PM 45.5733 -123.0689 320° Northwest 106 122 4,800 240 Climbing Seattle Center
02:22PM 45.5883 -123.0869 320° Northwest 120 138 4,900 180 Climbing Seattle Center
02:22PM 45.5981 -123.0958 327° Northwest 113 130 5,000 180 Climbing Seattle Center
02:23PM 45.6144 -123.1164 319° Northwest 118 136 5,100 60 Climbing Seattle Center
02:23PM 45.6264 -123.1308 320° Northwest 132 152 5,100 -120 Level Seattle Center
02:24PM 45.6481 -123.1569 320° Northwest 128 147 5,000 -240 Descending Seattle Center
02:24PM 45.6550 -123.1656 319° Northwest 136 157 4,900  Descending Seattle Center
02:25PM 45.6769 -123.1908 321° Northwest 133 153 5,000 60 Climbing Seattle Center
02:25PM 45.6803 -123.1956 315° West 118 136 5,000  Level Seattle Center
02:26PM 45.6989 -123.2158 323° Northwest 114 131 5,000 -240 Level Seattle Center
02:26PM 45.7044 -123.2200 332° Northwest 106 122 4,800 -420 Descending Seattle Center
02:27PM 45.7308 -123.2119 12° North 121 139 4,600 -300 Descending Seattle Center
02:27PM 45.7386 -123.2064 26° Northeast 127 146 4,500 -120 Descending Seattle Center
02:28PM 45.7356 -123.1717 97° East 134 154 4,500 -120 Level Seattle Center
02:28PM 45.7303 -123.1633 132° Southeast 129 148 4,400 -120 Descending Seattle Center
02:29PM 45.7058 -123.1269 134° Southeast 124 143 4,400 -240 Level Seattle Center
02:30PM 45.6836 -123.1017 142° Southeast 94 108 4,000 -480 Descending Seattle Center
02:31PM 45.6672 -123.0836 142° Southeast 113 130 3,600 -600 Descending Seattle Center
02:31PM 45.6614 -123.0767 140° Southeast 104 120 3,400 -840 Descending Seattle Center
02:32PM 45.6433 -123.0597 147° Southeast 108 124 2,800 -900 Descending Seattle Center
02:32PM 45.6350 -123.0533 152° Southeast 111 128 2,500 -840 Descending Seattle Center
02:33PM 45.6186 -123.0339 140° Southeast 108 124 2,000 -600 Descending Seattle Center
02:33PM 45.6147 -123.0275 131° Southeast 110 127 1,900 -840 Descending Seattle Center
02:34PM 45.5894 -123.0025 145° Southeast 109 125 1,200 -720 Descending Seattle Center
02:34PM 45.5906 -123.0033 332° Northwest 110 127 1,200 -540 Level Seattle Center
02:35PM 45.5661 -122.9783 144° Southeast 108 124 700 -540 Descending Seattle Center
02:35PM 45.5664 -122.9792 295° West 106 122 700 240 Level Seattle Center
02:36PM 45.5433 -122.9556 144° Southeast 105 121 1,000 300 Climbing Seattle Center
02:36PM 45.5425 -122.9578 242° Southwest 110 127 1,000 1,020 Level Seattle Center
02:38PM 45.5106 -122.9492 169° South 109 125 2,200 1,020 Climbing Seattle Center
02:38PM 45.4881 -122.9658 207° Southwest 107 123 3,100 1,080 Climbing Seattle Center
02:39PM 45.4906 -122.9789 285° West 128 147 3,300 840 Climbing Seattle Center
02:39PM 45.5119 -122.9961 331° Northwest 114 131 4,000 660 Climbing Seattle Center
02:40PM 45.5189 -123.0014 332° Northwest 117 135 4,000  Level Seattle Center
02:40PM 45.5428 -123.0258 324° Northwest 125 144 4,000  Level Seattle Center
02:41PM 45.5514 -123.0344 325° Northwest 147 169 4,000  Level Seattle Center
02:41PM 45.5761 -123.0589 325° Northwest 139 160 4,000  Level Seattle Center
02:42PM 45.5839 -123.0678 321° Northwest 145 167 4,000  Level Seattle Center
02:42PM 45.6081 -123.0950 322° Northwest 145 167 4,000  Level Seattle Center
02:43PM 45.6169 -123.1036 326° Northwest 144 166 4,000  Level Seattle Center
02:44PM 45.6394 -123.1269 324° Northwest 143 165 4,000  Level Seattle Center
02:44PM 45.6494 -123.1369 325° Northwest 129 148 4,000  Level Seattle Center
02:45PM 45.6711 -123.1633 320° Northwest 129 148 4,000  Level Seattle Center
02:45PM 45.6767 -123.1661 341° North 118 136 4,000  Level Seattle Center
02:46PM 45.6964 -123.1892 321° Northwest 114 131 4,000 -60 Level Seattle Center
02:47PM 45.7225 -123.2158 325° Northwest 115 132 3,900 60 Descending Seattle Center
02:47PM 45.7286 -123.2103 32° Northeast 120 138 4,100 60 Climbing Seattle Center
02:48PM 45.7142 -123.1697 117° Southeast 116 133 4,000 -300 Descending Seattle Center
02:49PM 45.6994 -123.1369 123° Southeast 117 135 3,600 -480 Descending Seattle Center
02:49PM 45.6978 -123.1300 109° East 136 157 3,600 -240 Level Seattle Center
02:50PM 45.6756 -123.0919 130° Southeast 129 148 3,400 -480 Descending Seattle Center
02:50PM 45.6675 -123.0867 155° Southeast 135 155 3,100 -600 Descending Seattle Center
02:51PM 45.6478 -123.0628 140° Southeast 131 151 2,800 -540 Descending Seattle Center
02:51PM 45.6428 -123.0594 155° Southeast 107 123 2,600 -720 Descending Seattle Center
02:52PM 45.6233 -123.0386 143° Southeast 121 139 2,100 -720 Descending Seattle Center
02:52PM 45.6186 -123.0353 154° Southeast 112 129 1,900 -600 Descending Seattle Center
02:53PM 45.6006 -123.0128 139° Southeast 113 130 1,500 -480 Descending Seattle Center
02:53PM 45.5958 -123.0075 142° Southeast 109 125 1,400 -540 Descending Seattle Center
02:54PM 45.5783 -122.9886 143° Southeast 107 123 1,000 -660 Descending Seattle Center
02:54PM 45.5689 -122.9811 151° Southeast 100 115 700 -600 Descending Seattle Center
02:55PM 45.5556 -122.9658 141° Southeast 104 120 400  Descending Seattle Center
02:55PM 45.5606 -122.9722 318° Northwest 99 114 700 4,500 Climbing Seattle Center